Time;durP1;ratioP1;P1;durP2;ratioP2;P2;SDS_P1;SDS_P2;PMS_P1;PMS_P2;Temp;Humidity;BMP_temperature;BMP_pressure;BME280_temperature;BME280_humidity;BME280_pressure;Samples;Min_cycle;Max_cycle;Signal;HPM_P1;HPM_P2
2023/08/14 00:00:00;;;;;;;5.50;3.50;;;22.00;99.90;;;;;;4997535;28;20695;-74
2023/08/14 00:02:25;;;;;;;5.00;3.17;;;22.10;99.90;;;;;;4998242;28;20228;-74
2023/08/14 00:04:51;;;;;;;4.53;3.63;;;22.20;99.90;;;;;;4995380;28;20214;-74
2023/08/14 00:07:17;;;;;;;5.25;3.47;;;22.10;99.90;;;;;;4992012;28;20555;-74
2023/08/14 00:09:42;;;;;;;4.47;3.70;;;22.10;99.90;;;;;;4991881;28;20209;-75
2023/08/14 00:12:08;;;;;;;6.22;3.90;;;22.20;99.90;;;;;;4990013;28;20206;-71
2023/08/14 00:14:33;;;;;;;6.25;3.83;;;22.10;99.90;;;;;;4992194;28;20209;-74
2023/08/14 00:16:59;;;;;;;5.20;3.88;;;22.20;99.90;;;;;;4988344;28;20221;-74
2023/08/14 00:19:25;;;;;;;7.65;3.95;;;22.10;99.90;;;;;;4989017;28;20221;-74
2023/08/14 00:21:51;;;;;;;5.43;3.47;;;22.00;99.90;;;;;;4986908;28;20251;-73
2023/08/14 00:24:16;;;;;;;6.72;3.58;;;22.10;99.90;;;;;;4985298;28;20214;-74
2023/08/14 00:26:42;;;;;;;4.57;3.97;;;22.00;99.90;;;;;;4983551;28;20212;-74
2023/08/14 00:29:07;;;;;;;5.88;3.67;;;22.00;99.90;;;;;;4980981;28;20221;-74
2023/08/14 00:31:33;;;;;;;5.47;3.80;;;21.90;99.90;;;;;;4994789;28;20218;-74
2023/08/14 00:33:59;;;;;;;6.55;4.10;;;22.00;99.90;;;;;;5002215;28;20177;-74
2023/08/14 00:36:24;;;;;;;6.47;4.45;;;22.00;99.90;;;;;;4998638;28;20214;-74
2023/08/14 00:38:50;;;;;;;5.82;4.10;;;22.00;99.90;;;;;;4996902;28;20220;-75
2023/08/14 00:41:16;;;;;;;7.20;4.55;;;22.00;99.90;;;;;;4994307;28;20229;-75
2023/08/14 00:43:42;;;;;;;4.53;3.97;;;22.00;99.90;;;;;;4994928;28;20181;-72
2023/08/14 00:46:08;;;;;;;5.07;3.80;;;22.00;99.90;;;;;;4990160;28;20272;-74
2023/08/14 00:48:34;;;;;;;5.55;4.28;;;22.00;99.90;;;;;;4992731;28;20209;-74
2023/08/14 00:51:00;;;;;;;7.25;4.22;;;21.90;99.90;;;;;;4989145;28;20292;-74
2023/08/14 00:53:28;;;;;;;6.57;4.43;;;21.90;99.90;;;;;;4989265;28;20297;-74
2023/08/14 00:55:54;;;;;;;7.80;4.47;;;21.80;99.90;;;;;;4986880;28;20206;-73
2023/08/14 00:58:23;;;;;;;6.60;4.75;;;21.90;99.90;;;;;;4986260;28;20705;-73
2023/08/14 01:00:50;;;;;;;5.43;3.80;;;21.90;99.90;;;;;;4984809;28;20223;-73
2023/08/14 01:03:19;;;;;;;5.28;4.15;;;21.90;99.90;;;;;;4981608;28;20210;-74
2023/08/14 01:05:45;;;;;;;8.25;4.57;;;21.80;99.90;;;;;;4983203;28;20695;-74
2023/08/14 01:08:10;;;;;;;5.82;3.83;;;21.80;99.90;;;;;;4987039;28;20220;-74
2023/08/14 01:11:01;;;;;;;6.47;4.90;;;21.80;99.90;;;;;;4996676;28;20181;-74
2023/08/14 01:13:44;;;;;;;8.23;4.30;;;21.70;99.90;;;;;;4996705;28;20182;-73
2023/08/14 01:16:17;;;;;;;5.47;4.18;;;21.70;99.90;;;;;;4993008;28;20182;-74
2023/08/14 01:18:44;;;;;;;4.80;4.30;;;21.60;99.90;;;;;;4992174;28;20216;-74
2023/08/14 01:21:13;;;;;;;5.40;4.32;;;21.60;99.90;;;;;;4991758;28;20213;-74
2023/08/14 01:24:07;;;;;;;5.15;4.63;;;21.60;99.90;;;;;;4990828;28;20209;-74
2023/08/14 01:26:34;;;;;;;5.25;4.32;;;21.70;99.90;;;;;;4993997;28;20633;-72
2023/08/14 01:29:00;;;;;;;4.70;4.20;;;21.60;99.90;;;;;;4988954;28;20209;-73
2023/08/14 01:31:26;;;;;;;8.10;4.47;;;21.60;99.90;;;;;;4987830;28;20692;-74
2023/08/14 01:33:52;;;;;;;6.07;4.55;;;21.60;99.90;;;;;;4987507;28;20185;-73
2023/08/14 01:36:24;;;;;;;9.38;4.15;;;21.60;99.90;;;;;;4982207;28;20227;-74
2023/08/14 01:39:01;;;;;;;6.40;4.47;;;21.60;99.90;;;;;;4985142;28;20244;-74
2023/08/14 01:41:39;;;;;;;5.85;3.90;;;21.60;99.90;;;;;;4994961;28;20221;-74
2023/08/14 01:44:07;;;;;;;5.78;4.55;;;21.60;99.90;;;;;;4983006;28;20691;-74
2023/08/14 01:46:34;;;;;;;6.85;4.97;;;21.50;99.90;;;;;;4997009;28;20213;-74
2023/08/14 01:49:02;;;;;;;11.68;9.13;;;21.50;99.90;;;;;;4996711;28;20271;-74
2023/08/14 01:51:29;;;;;;;8.48;4.90;;;21.40;99.90;;;;;;4995974;28;20289;-75
2023/08/14 01:53:55;;;;;;;4.72;3.85;;;21.50;99.90;;;;;;4996265;28;20272;-74
2023/08/14 01:56:20;;;;;;;5.22;4.00;;;21.40;99.90;;;;;;4993029;28;20221;-73
2023/08/14 01:58:46;;;;;;;7.43;5.18;;;21.40;99.90;;;;;;4995554;28;20566;-73
2023/08/14 02:01:12;;;;;;;7.03;4.05;;;21.40;99.90;;;;;;4990327;28;20576;-74
2023/08/14 02:03:37;;;;;;;6.65;4.85;;;21.30;99.90;;;;;;4991034;28;20582;-73
2023/08/14 02:06:03;;;;;;;4.22;3.67;;;21.30;99.90;;;;;;4988301;28;20201;-73
2023/08/14 02:08:28;;;;;;;4.63;3.72;;;21.20;99.90;;;;;;4987161;28;20269;-74
2023/08/14 02:10:54;;;;;;;6.47;4.10;;;21.20;99.90;;;;;;4986892;28;20210;-75
2023/08/14 02:13:20;;;;;;;5.35;4.25;;;21.10;99.90;;;;;;4983331;28;20190;-74
2023/08/14 02:15:46;;;;;;;3.80;3.50;;;21.20;99.90;;;;;;4987084;28;20916;-74
2023/08/14 02:18:13;;;;;;;7.15;4.10;;;21.20;99.90;;;;;;4984181;28;20210;-74
2023/08/14 02:20:46;;;;;;;5.57;4.05;;;21.10;99.90;;;;;;4988344;28;20244;-75
2023/08/14 02:23:11;;;;;;;4.10;3.70;;;21.10;99.90;;;;;;5001029;28;20287;-74
2023/08/14 02:25:41;;;;;;;5.43;4.30;;;21.00;99.90;;;;;;4994324;28;20654;-74
2023/08/14 02:28:07;;;;;;;4.68;4.20;;;20.90;99.90;;;;;;4982905;28;20716;-74
2023/08/14 02:30:38;;;;;;;4.90;3.70;;;21.00;99.90;;;;;;4989028;28;20695;-74
2023/08/14 02:33:04;;;;;;;8.88;4.38;;;21.00;99.90;;;;;;4991995;28;20213;-74
2023/08/14 02:35:30;;;;;;;4.85;4.00;;;20.90;99.90;;;;;;4988310;28;20313;-74
2023/08/14 02:37:56;;;;;;;7.65;4.00;;;20.90;99.90;;;;;;4994253;28;20237;-74
2023/08/14 02:40:21;;;;;;;8.13;3.92;;;20.90;99.90;;;;;;4985899;28;20283;-72
2023/08/14 02:42:47;;;;;;;4.75;4.00;;;20.90;99.90;;;;;;4989869;28;20224;-74
2023/08/14 02:45:13;;;;;;;4.22;3.83;;;20.90;99.90;;;;;;4985393;28;20206;-75
2023/08/14 02:47:39;;;;;;;8.10;4.45;;;20.90;99.90;;;;;;4988251;28;20285;-74
2023/08/14 02:50:05;;;;;;;6.85;4.22;;;20.80;99.90;;;;;;4989089;28;20221;-74
2023/08/14 02:52:30;;;;;;;7.72;4.13;;;20.80;99.90;;;;;;4984038;28;20209;-75
2023/08/14 02:54:56;;;;;;;6.50;4.05;;;20.80;99.90;;;;;;4985058;28;20173;-74
2023/08/14 02:57:22;;;;;;;5.15;3.70;;;20.70;99.90;;;;;;4984536;28;20301;-72
2023/08/14 02:59:48;;;;;;;3.90;3.45;;;20.70;99.90;;;;;;4992853;28;20293;-75
2023/08/14 03:02:13;;;;;;;5.82;4.07;;;20.70;99.90;;;;;;4991417;28;20231;-74
2023/08/14 03:04:39;;;;;;;5.70;4.00;;;20.70;99.90;;;;;;4990287;28;20304;-74
2023/08/14 03:07:04;;;;;;;5.93;3.75;;;20.60;99.90;;;;;;4992337;28;20229;-74
2023/08/14 03:09:30;;;;;;;5.85;4.20;;;20.60;99.90;;;;;;4991661;28;20241;-74
2023/08/14 03:11:56;;;;;;;5.50;3.92;;;20.60;99.90;;;;;;4992161;28;20582;-75
2023/08/14 03:14:21;;;;;;;8.05;4.55;;;20.60;99.90;;;;;;4987493;28;20267;-74
2023/08/14 03:16:47;;;;;;;4.68;4.15;;;20.60;99.90;;;;;;4988115;28;20229;-73
2023/08/14 03:19:13;;;;;;;6.10;4.10;;;20.60;99.90;;;;;;4988082;28;20273;-75
2023/08/14 03:21:39;;;;;;;6.45;4.30;;;20.50;99.90;;;;;;4987232;28;20376;-74
2023/08/14 03:24:05;;;;;;;6.05;3.97;;;20.40;99.90;;;;;;4986295;28;20248;-74
2023/08/14 03:26:31;;;;;;;5.35;4.50;;;20.40;99.90;;;;;;4986707;28;20691;-73
2023/08/14 03:28:56;;;;;;;7.95;4.47;;;20.40;99.90;;;;;;4984750;28;20233;-75
2023/08/14 03:31:22;;;;;;;7.63;3.78;;;20.40;99.90;;;;;;4982746;28;20182;-72
2023/08/14 03:33:47;;;;;;;5.15;3.88;;;20.40;99.90;;;;;;4983875;28;20821;-74
2023/08/14 03:36:13;;;;;;;6.00;4.25;;;20.40;99.90;;;;;;4988306;28;20217;-74
2023/08/14 03:38:39;;;;;;;5.60;4.35;;;20.30;99.90;;;;;;4992393;28;20221;-74
2023/08/14 03:41:04;;;;;;;4.97;4.45;;;20.30;99.90;;;;;;4992450;28;20700;-74
2023/08/14 03:43:30;;;;;;;5.93;4.10;;;20.30;99.90;;;;;;4991159;28;20190;-74
2023/08/14 03:45:56;;;;;;;5.85;3.95;;;20.40;99.90;;;;;;4995281;28;20177;-75
2023/08/14 03:48:21;;;;;;;9.88;4.22;;;20.30;99.90;;;;;;4989117;28;20225;-73
2023/08/14 03:50:47;;;;;;;7.72;4.60;;;20.30;99.90;;;;;;4990225;28;20206;-75
2023/08/14 03:53:13;;;;;;;5.55;4.07;;;20.20;99.90;;;;;;4991587;28;20213;-73
2023/08/14 03:55:39;;;;;;;6.22;4.32;;;20.20;99.90;;;;;;4984133;28;20560;-75
2023/08/14 03:58:04;;;;;;;7.32;4.15;;;20.20;99.90;;;;;;4989979;28;20609;-73
2023/08/14 04:00:30;;;;;;;7.25;4.65;;;20.20;99.90;;;;;;4987793;28;20214;-74
2023/08/14 04:02:56;;;;;;;8.05;4.68;;;20.20;99.90;;;;;;4986026;28;20590;-73
2023/08/14 04:05:21;;;;;;;7.90;4.90;;;20.20;99.90;;;;;;4982789;28;20549;-74
2023/08/14 04:07:47;;;;;;;8.00;4.05;;;20.20;99.90;;;;;;4984028;28;21944;-74
2023/08/14 04:10:12;;;;;;;5.90;4.55;;;20.30;99.90;;;;;;4981554;28;20232;-74
2023/08/14 04:12:38;;;;;;;6.28;4.80;;;20.30;99.90;;;;;;4990194;28;20592;-74
2023/08/14 04:15:15;;;;;;;8.70;4.28;;;20.40;99.90;;;;;;4993488;28;20907;-74
2023/08/14 04:17:40;;;;;;;7.68;4.95;;;20.40;99.90;;;;;;4991347;28;20336;-74
2023/08/14 04:20:06;;;;;;;7.50;4.30;;;20.50;99.90;;;;;;4990362;28;20288;-75
2023/08/14 04:22:32;;;;;;;6.30;4.47;;;20.60;99.90;;;;;;4992908;28;20719;-72
2023/08/14 04:24:58;;;;;;;5.28;4.43;;;20.60;99.90;;;;;;4992426;28;20200;-72
2023/08/14 04:27:23;;;;;;;5.55;4.72;;;20.70;99.90;;;;;;4985979;28;20209;-74
2023/08/14 04:29:49;;;;;;;5.68;4.60;;;20.70;99.90;;;;;;4989457;28;20214;-74
2023/08/14 04:32:14;;;;;;;8.55;4.63;;;20.80;99.90;;;;;;4986985;28;20210;-74
2023/08/14 04:34:40;;;;;;;7.38;4.80;;;20.90;99.90;;;;;;4985719;28;20616;-74
2023/08/14 04:37:06;;;;;;;9.02;4.93;;;21.10;99.90;;;;;;4984626;28;20189;-75
2023/08/14 04:39:31;;;;;;;6.53;4.38;;;21.00;99.90;;;;;;4979904;28;20218;-72
2023/08/14 04:41:57;;;;;;;6.03;3.83;;;21.50;99.90;;;;;;4984381;28;20292;-74
2023/08/14 04:44:22;;;;;;;5.25;4.18;;;23.50;99.90;;;;;;4982998;28;20616;-72
2023/08/14 04:46:50;;;;;;;7.07;4.18;;;25.10;99.90;;;;;;4985119;28;20223;-74
2023/08/14 04:49:16;;;;;;;7.28;3.95;;;26.30;99.90;;;;;;4994958;28;20215;-74
2023/08/14 04:51:41;;;;;;;4.00;3.60;;;27.30;99.90;;;;;;4997861;28;20688;-74
2023/08/14 04:54:07;;;;;;;6.00;4.20;;;28.50;99.90;;;;;;4998441;28;20215;-75
2023/08/14 04:56:33;;;;;;;11.25;6.03;;;29.20;99.90;;;;;;4994246;28;20212;-75
2023/08/14 04:58:58;;;;;;;5.10;4.43;;;29.60;99.90;;;;;;4992108;28;20300;-74
2023/08/14 05:01:24;;;;;;;9.60;6.85;;;29.90;99.90;;;;;;4992670;28;20241;-71
2023/08/14 05:03:50;;;;;;;11.88;8.05;;;30.30;99.90;;;;;;4991891;28;20186;-73
2023/08/14 05:06:15;;;;;;;7.03;4.07;;;30.50;99.90;;;;;;4989688;28;20335;-73
2023/08/14 05:08:41;;;;;;;16.20;12.38;;;30.20;99.90;;;;;;4988572;28;20217;-73
2023/08/14 05:11:06;;;;;;;6.90;5.30;;;29.40;99.90;;;;;;4989455;28;20761;-73
2023/08/14 05:13:32;;;;;;;7.20;5.72;;;29.10;99.90;;;;;;4983281;28;20660;-73
2023/08/14 05:15:58;;;;;;;8.63;5.70;;;29.90;99.90;;;;;;4987868;28;20189;-74
2023/08/14 05:18:23;;;;;;;4.63;3.65;;;30.20;99.90;;;;;;4983793;28;20220;-71
2023/08/14 05:20:51;;;;;;;7.22;4.18;;;29.80;99.90;;;;;;4983132;28;20223;-73
2023/08/14 05:23:17;;;;;;;18.42;14.65;;;30.60;99.90;;;;;;4981761;28;20212;-73
2023/08/14 05:25:44;;;;;;;9.45;6.47;;;31.30;99.90;;;;;;4988979;28;20178;-73
2023/08/14 05:28:10;;;;;;;9.85;8.07;;;31.20;99.90;;;;;;4999585;28;20323;-72
2023/08/14 05:30:36;;;;;;;13.13;8.63;;;30.60;99.90;;;;;;4995539;28;20284;-73
2023/08/14 05:33:02;;;;;;;9.60;7.63;;;30.80;99.90;;;;;;4991629;28;20637;-73
2023/08/14 05:35:31;;;;;;;7.05;4.88;;;30.60;99.90;;;;;;4992839;28;20205;-73
2023/08/14 05:37:57;;;;;;;12.32;9.40;;;30.10;99.90;;;;;;4993212;28;20215;-73
2023/08/14 05:40:26;;;;;;;6.97;5.78;;;29.60;99.90;;;;;;4995657;28;20232;-71
2023/08/14 05:43:09;;;;;;;6.57;4.60;;;29.80;99.90;;;;;;4989713;28;20310;-73
2023/08/14 05:45:36;;;;;;;7.18;4.60;;;30.00;99.90;;;;;;4984958;28;20209;-74
2023/08/14 05:48:04;;;;;;;7.07;4.55;;;30.60;99.90;;;;;;4992412;28;20205;-72
2023/08/14 05:50:30;;;;;;;6.55;4.97;;;30.70;99.90;;;;;;4987269;28;20212;-73
2023/08/14 05:52:56;;;;;;;7.15;4.60;;;31.50;99.90;;;;;;4988359;28;20210;-74
2023/08/14 05:55:23;;;;;;;5.63;3.50;;;31.40;99.90;;;;;;4988018;28;20570;-72
2023/08/14 05:57:49;;;;;;;4.85;3.90;;;31.20;99.90;;;;;;4985909;28;20213;-73
2023/08/14 06:00:15;;;;;;;7.32;4.30;;;31.40;99.90;;;;;;4986288;28;20591;-73
2023/08/14 06:02:41;;;;;;;6.88;4.10;;;31.80;99.90;;;;;;4989135;28;20205;-73
2023/08/14 06:05:08;;;;;;;6.60;3.92;;;32.20;99.90;;;;;;5004079;28;20211;-73
2023/08/14 06:07:34;;;;;;;6.15;3.72;;;32.60;99.90;;;;;;4999492;28;20173;-74
2023/08/14 06:10:00;;;;;;;7.22;4.07;;;33.20;99.90;;;;;;4998396;28;20200;-74
2023/08/14 06:12:26;;;;;;;6.30;3.75;;;34.20;99.90;;;;;;4997025;28;20209;-74
2023/08/14 06:14:51;;;;;;;5.22;3.88;;;34.30;99.90;;;;;;4990665;28;20206;-73
2023/08/14 06:17:17;;;;;;;5.65;3.72;;;33.70;99.90;;;;;;4994968;28;20209;-73
2023/08/14 06:19:43;;;;;;;7.25;3.85;;;34.00;99.90;;;;;;4990387;28;20217;-72
2023/08/14 06:22:09;;;;;;;5.60;3.80;;;33.90;99.90;;;;;;4994542;28;20279;-72
2023/08/14 06:24:34;;;;;;;7.18;3.78;;;34.40;99.90;;;;;;4988194;28;20205;-72
2023/08/14 06:27:00;;;;;;;7.15;3.90;;;34.80;99.90;;;;;;4991027;28;20213;-72
2023/08/14 06:29:26;;;;;;;5.05;3.97;;;35.30;99.90;;;;;;4988823;28;20584;-72
2023/08/14 06:31:52;;;;;;;6.85;3.80;;;35.70;99.70;;;;;;4985701;28;20644;-73
2023/08/14 06:34:17;;;;;;;5.15;3.85;;;35.30;98.90;;;;;;4987401;28;20672;-73
2023/08/14 06:36:43;;;;;;;6.03;3.95;;;35.20;98.90;;;;;;4989423;28;20245;-71
2023/08/14 06:39:09;;;;;;;4.45;4.00;;;35.30;98.30;;;;;;4988858;28;20213;-73
2023/08/14 06:41:34;;;;;;;5.13;3.90;;;35.10;97.80;;;;;;5004684;28;20296;-73
2023/08/14 06:44:00;;;;;;;6.65;4.07;;;35.40;97.80;;;;;;4993250;28;20233;-73
2023/08/14 06:46:25;;;;;;;7.57;4.25;;;35.60;97.20;;;;;;4999482;28;20189;-72
2023/08/14 06:48:51;;;;;;;6.13;4.18;;;36.00;96.30;;;;;;4996436;28;20223;-72
2023/08/14 06:51:16;;;;;;;10.18;4.80;;;36.50;95.20;;;;;;4992561;28;20228;-73
2023/08/14 06:53:42;;;;;;;7.97;4.20;;;36.30;94.80;;;;;;4993111;28;20292;-72
2023/08/14 06:56:08;;;;;;;9.50;3.92;;;36.20;94.30;;;;;;4993641;28;20204;-73
2023/08/14 06:58:34;;;;;;;6.32;4.00;;;36.20;94.60;;;;;;4990226;28;20203;-73
2023/08/14 07:01:00;;;;;;;8.27;4.10;;;37.10;94.50;;;;;;4990893;28;20201;-73
2023/08/14 07:03:25;;;;;;;6.28;4.15;;;38.30;93.10;;;;;;4988454;28;20208;-73
2023/08/14 07:05:51;;;;;;;9.98;4.90;;;37.60;91.70;;;;;;4987462;28;20209;-73
2023/08/14 07:08:16;;;;;;;5.72;3.90;;;37.70;91.30;;;;;;4992966;28;20205;-72
2023/08/14 07:10:42;;;;;;;6.53;3.70;;;38.10;90.70;;;;;;4984232;28;20178;-73
2023/08/14 07:13:08;;;;;;;6.10;4.00;;;38.50;90.00;;;;;;4986155;28;20534;-73
2023/08/14 07:15:33;;;;;;;7.35;3.95;;;38.20;89.00;;;;;;4984208;28;20212;-73
2023/08/14 07:17:59;;;;;;;5.35;4.07;;;38.30;88.50;;;;;;4993993;28;20236;-73
2023/08/14 07:20:26;;;;;;;7.13;3.88;;;38.40;87.70;;;;;;4998649;28;20200;-72
2023/08/14 07:22:52;;;;;;;6.60;3.25;;;38.60;87.00;;;;;;4996872;28;20220;-74
2023/08/14 07:25:18;;;;;;;6.40;3.45;;;38.90;85.60;;;;;;4993746;28;20268;-73
2023/08/14 07:27:44;;;;;;;4.13;3.30;;;39.30;82.90;;;;;;4988875;28;20224;-73
2023/08/14 07:30:10;;;;;;;4.00;3.40;;;39.30;82.00;;;;;;4996406;28;20208;-72
2023/08/14 07:32:35;;;;;;;3.83;3.42;;;39.80;79.90;;;;;;4991534;28;20244;-71
2023/08/14 07:35:02;;;;;;;4.13;3.65;;;39.10;80.50;;;;;;4989746;28;20237;-73
2023/08/14 07:37:28;;;;;;;3.05;2.72;;;39.10;80.30;;;;;;4990955;28;20232;-73
2023/08/14 07:39:53;;;;;;;5.53;3.28;;;39.70;78.90;;;;;;4987027;28;20218;-74
2023/08/14 07:42:19;;;;;;;5.15;3.38;;;39.60;77.90;;;;;;4988976;28;20727;-73
2023/08/14 07:44:45;;;;;;;5.03;3.42;;;39.40;77.90;;;;;;4982822;28;20730;-73
2023/08/14 07:47:12;;;;;;;3.80;3.08;;;39.30;77.30;;;;;;4989595;28;20250;-74
2023/08/14 07:49:38;;;;;;;4.85;3.25;;;38.10;79.20;;;;;;4983080;28;20193;-73
2023/08/14 07:52:04;;;;;;;5.95;3.15;;;39.30;77.50;;;;;;4984898;28;20707;-73
2023/08/14 07:54:30;;;;;;;5.18;3.30;;;38.00;78.50;;;;;;5000913;28;20746;-73
2023/08/14 07:56:55;;;;;;;4.50;3.08;;;38.00;79.20;;;;;;4996386;28;20305;-71
2023/08/14 07:59:21;;;;;;;4.88;3.05;;;38.30;78.80;;;;;;4999855;28;20204;-72
2023/08/14 08:01:47;;;;;;;6.72;2.92;;;38.80;77.90;;;;;;4993884;28;20885;-73
2023/08/14 08:04:13;;;;;;;4.55;2.83;;;38.60;77.40;;;;;;4996110;28;20180;-73
2023/08/14 08:06:39;;;;;;;3.00;2.70;;;38.30;78.20;;;;;;4990681;28;20208;-73
2023/08/14 08:09:04;;;;;;;4.05;2.85;;;37.50;78.70;;;;;;4988970;28;20216;-73
2023/08/14 08:11:30;;;;;;;5.43;2.40;;;37.20;80.20;;;;;;4991532;28;20237;-73
2023/08/14 08:13:56;;;;;;;3.90;2.90;;;37.10;81.40;;;;;;4983592;28;20224;-74
2023/08/14 08:16:22;;;;;;;4.93;2.60;;;37.50;80.30;;;;;;4992804;28;20671;-74
2023/08/14 08:18:47;;;;;;;3.17;2.35;;;37.80;79.60;;;;;;4985639;28;20233;-73
2023/08/14 08:21:13;;;;;;;3.38;2.22;;;38.10;79.10;;;;;;4985563;28;20214;-72
2023/08/14 08:23:39;;;;;;;2.53;2.28;;;38.30;77.90;;;;;;4982222;28;20201;-74
2023/08/14 08:26:04;;;;;;;5.05;3.20;;;38.10;77.70;;;;;;4981345;28;20356;-74
2023/08/14 08:28:30;;;;;;;4.93;2.65;;;38.10;75.70;;;;;;4983550;28;20208;-73
2023/08/14 08:30:56;;;;;;;3.70;2.70;;;38.70;76.90;;;;;;4995056;28;20185;-74
2023/08/14 08:33:21;;;;;;;3.55;2.90;;;37.80;75.30;;;;;;5000161;28;20303;-73
2023/08/14 08:35:47;;;;;;;4.45;2.63;;;38.50;73.30;;;;;;4991625;28;20213;-74
2023/08/14 08:38:12;;;;;;;5.43;2.75;;;38.80;73.60;;;;;;4996502;28;20210;-73
2023/08/14 08:40:41;;;;;;;4.20;2.65;;;38.20;75.30;;;;;;4991658;28;20188;-73
2023/08/14 08:43:09;;;;;;;3.20;2.20;;;37.60;76.30;;;;;;4992886;28;20696;-73
2023/08/14 08:45:36;;;;;;;3.30;2.60;;;36.70;77.20;;;;;;4987852;28;20226;-73
2023/08/14 08:48:07;;;;;;;3.58;2.28;;;36.10;76.60;;;;;;4993819;28;20209;-74
2023/08/14 08:50:33;;;;;;;4.63;2.33;;;37.40;77.10;;;;;;4989816;28;20221;-73
2023/08/14 08:52:59;;;;;;;3.42;2.70;;;37.80;76.70;;;;;;4986034;28;20630;-73
2023/08/14 08:55:24;;;;;;;3.38;2.55;;;37.90;73.30;;;;;;4988247;28;20182;-74
2023/08/14 08:57:52;;;;;;;3.15;2.30;;;37.40;75.40;;;;;;4984203;28;20227;-74
2023/08/14 09:00:20;;;;;;;4.22;2.60;;;37.70;75.60;;;;;;4983531;28;20215;-74
2023/08/14 09:02:46;;;;;;;4.15;2.60;;;38.00;75.30;;;;;;4981033;28;20220;-74
2023/08/14 09:05:11;;;;;;;6.68;3.00;;;36.70;74.20;;;;;;4982479;28;20214;-74
2023/08/14 09:07:37;;;;;;;2.65;1.80;;;35.90;75.40;;;;;;5003773;28;20172;-74
2023/08/14 09:10:03;;;;;;;5.22;2.92;;;36.50;75.30;;;;;;4997499;28;20558;-74
2023/08/14 09:12:30;;;;;;;2.67;2.40;;;37.20;73.90;;;;;;4994777;28;20240;-74
2023/08/14 09:15:04;;;;;;;4.38;2.83;;;36.90;74.10;;;;;;4990503;28;20252;-74
2023/08/14 09:17:30;;;;;;;4.25;2.47;;;36.90;75.10;;;;;;4984672;28;20204;-73
2023/08/14 09:19:55;;;;;;;3.10;2.60;;;37.20;74.80;;;;;;4991198;28;20235;-74
2023/08/14 09:22:21;;;;;;;4.43;2.72;;;37.70;73.70;;;;;;4995115;28;20605;-73
2023/08/14 09:24:48;;;;;;;6.22;3.80;;;36.70;74.10;;;;;;4985103;28;20284;-72
2023/08/14 09:27:15;;;;;;;4.55;2.22;;;35.10;75.50;;;;;;4988850;28;20205;-74
2023/08/14 09:29:41;;;;;;;6.07;2.63;;;34.40;76.90;;;;;;4987869;28;20211;-73
2023/08/14 09:32:07;;;;;;;3.22;2.72;;;34.90;79.10;;;;;;4984005;28;20237;-73
2023/08/14 09:34:32;;;;;;;5.68;2.47;;;34.90;76.70;;;;;;4981251;28;20730;-74
2023/08/14 09:36:58;;;;;;;3.58;2.08;;;34.80;77.60;;;;;;4980000;28;20175;-75
2023/08/14 09:39:24;;;;;;;3.60;2.03;;;35.00;77.20;;;;;;4983600;28;20214;-73
2023/08/14 09:41:50;;;;;;;2.85;2.13;;;34.10;77.00;;;;;;4978790;28;20228;-73
2023/08/14 09:44:20;;;;;;;5.82;2.75;;;34.00;77.10;;;;;;4985391;28;20210;-73
2023/08/14 09:46:49;;;;;;;4.13;2.30;;;34.50;78.10;;;;;;4996808;28;20783;-73
2023/08/14 09:49:16;;;;;;;6.45;3.08;;;34.40;77.40;;;;;;5001903;28;20296;-73
2023/08/14 09:51:42;;;;;;;4.47;2.63;;;33.50;79.80;;;;;;4995341;28;20357;-74
2023/08/14 09:54:09;;;;;;;3.38;2.50;;;33.30;81.00;;;;;;4993150;28;20292;-74
2023/08/14 09:56:35;;;;;;;4.43;2.08;;;33.00;83.60;;;;;;4992269;28;20205;-73
2023/08/14 09:59:01;;;;;;;5.15;2.45;;;33.70;83.90;;;;;;4989160;28;20221;-73
2023/08/14 10:01:28;;;;;;;7.70;2.13;;;34.00;83.00;;;;;;4988093;28;20252;-73
2023/08/14 10:03:55;;;;;;;2.80;2.00;;;34.60;83.00;;;;;;4988134;28;20584;-73
2023/08/14 10:06:24;;;;;;;5.68;2.17;;;33.70;81.40;;;;;;4988325;28;20230;-72
2023/08/14 10:08:56;;;;;;;3.33;2.13;;;33.10;82.30;;;;;;4985834;28;20715;-74
2023/08/14 10:11:26;;;;;;;5.05;2.47;;;32.30;81.70;;;;;;4984624;28;20247;-72
2023/08/14 10:13:56;;;;;;;5.65;1.80;;;32.60;82.70;;;;;;4980349;28;20728;-73
2023/08/14 10:16:23;;;;;;;5.72;3.50;;;33.30;83.50;;;;;;4984192;28;20194;-72
2023/08/14 10:18:54;;;;;;;6.68;4.00;;;33.90;82.40;;;;;;4980143;28;20205;-74
2023/08/14 10:21:24;;;;;;;6.13;3.00;;;34.10;81.10;;;;;;4998348;28;20213;-73
2023/08/14 10:23:51;;;;;;;3.45;2.17;;;34.30;81.60;;;;;;4993680;28;20225;-74
2023/08/14 10:26:17;;;;;;;4.45;2.45;;;33.50;79.80;;;;;;4994576;28;20221;-73
2023/08/14 10:28:43;;;;;;;4.45;2.05;;;33.00;80.90;;;;;;4993145;28;20559;-74
2023/08/14 10:31:10;;;;;;;2.35;1.73;;;32.90;81.60;;;;;;4989991;28;20558;-73
2023/08/14 10:33:38;;;;;;;4.57;2.80;;;33.00;80.60;;;;;;4990925;28;20209;-74
2023/08/14 10:36:03;;;;;;;5.40;2.35;;;32.90;81.30;;;;;;4987288;28;20345;-74
2023/08/14 10:38:44;;;;;;;2.85;2.00;;;33.10;81.00;;;;;;4993244;28;20336;-74
2023/08/14 10:41:10;;;;;;;2.97;2.10;;;33.70;80.70;;;;;;4986540;28;20373;-73
2023/08/14 10:43:36;;;;;;;4.15;2.00;;;33.90;80.00;;;;;;4989496;28;20640;-73
2023/08/14 10:46:15;;;;;;;3.22;1.77;;;33.50;78.20;;;;;;4987269;28;20555;-73
2023/08/14 10:48:42;;;;;;;3.03;2.72;;;32.80;79.60;;;;;;4993704;28;20269;-74
2023/08/14 10:51:09;;;;;;;5.60;3.25;;;32.50;79.40;;;;;;4983176;28;20217;-73
2023/08/14 10:53:36;;;;;;;2.53;1.80;;;32.10;80.80;;;;;;4985757;28;20209;-73
2023/08/14 10:56:04;;;;;;;4.53;2.00;;;32.40;80.50;;;;;;4989885;28;20755;-74
2023/08/14 10:58:35;;;;;;;3.58;2.20;;;31.90;81.50;;;;;;5002969;28;20212;-73
2023/08/14 11:01:03;;;;;;;3.78;1.92;;;31.90;82.80;;;;;;4996378;28;20696;-73
2023/08/14 11:03:30;;;;;;;3.20;2.25;;;31.80;83.50;;;;;;4993437;28;20209;-74
2023/08/14 11:05:56;;;;;;;4.38;1.90;;;31.20;85.80;;;;;;4993671;28;20202;-74
2023/08/14 11:08:22;;;;;;;1.88;1.70;;;30.80;86.90;;;;;;4993134;28;20750;-71
2023/08/14 11:10:49;;;;;;;4.72;2.42;;;30.40;88.40;;;;;;4995236;28;21193;-73
2023/08/14 11:13:15;;;;;;;2.83;2.17;;;31.00;89.50;;;;;;4991062;28;20182;-74
2023/08/14 11:15:42;;;;;;;3.75;2.05;;;31.30;88.70;;;;;;4991467;28;20213;-74
2023/08/14 11:18:09;;;;;;;4.55;2.42;;;31.20;89.40;;;;;;4988973;28;20219;-71
2023/08/14 11:20:42;;;;;;;2.88;2.13;;;31.50;88.90;;;;;;4994226;28;20300;-74
2023/08/14 11:23:08;;;;;;;3.78;2.53;;;31.50;88.60;;;;;;4986171;28;20215;-74
2023/08/14 11:25:34;;;;;;;4.90;2.20;;;31.40;90.00;;;;;;4987974;28;20173;-74
2023/08/14 11:28:00;;;;;;;2.88;1.98;;;31.90;89.00;;;;;;4985023;28;20197;-74
2023/08/14 11:30:30;;;;;;;3.65;2.35;;;31.70;88.30;;;;;;4984245;28;20214;-74
2023/08/14 11:32:56;;;;;;;3.97;2.05;;;31.70;89.40;;;;;;4983110;28;20237;-73
2023/08/14 11:35:22;;;;;;;2.85;2.45;;;32.00;89.00;;;;;;4997064;28;20766;-73
2023/08/14 11:37:47;;;;;;;2.25;1.77;;;31.90;88.80;;;;;;4996792;28;20219;-73
2023/08/14 11:40:15;;;;;;;3.45;2.47;;;31.30;89.30;;;;;;4993891;28;20244;-73
2023/08/14 11:42:42;;;;;;;4.68;2.30;;;31.20;90.10;;;;;;4998119;28;20220;-73
2023/08/14 11:45:09;;;;;;;3.42;1.80;;;31.00;90.10;;;;;;4992717;28;20597;-72
2023/08/14 11:47:50;;;;;;;4.30;2.03;;;30.80;90.50;;;;;;4990540;28;20347;-73
2023/08/14 11:50:17;;;;;;;4.68;2.30;;;30.80;90.80;;;;;;4995252;28;20267;-74
2023/08/14 11:52:44;;;;;;;4.05;2.20;;;31.00;90.80;;;;;;4990827;28;20178;-75
2023/08/14 11:55:10;;;;;;;2.92;2.05;;;30.80;90.40;;;;;;4987676;28;20178;-75
2023/08/14 11:57:37;;;;;;;3.63;2.05;;;30.60;91.40;;;;;;4990243;28;20345;-74
2023/08/14 12:00:10;;;;;;;2.75;2.13;;;30.60;91.30;;;;;;4985383;28;20720;-76
2023/08/14 12:02:37;;;;;;;3.53;2.63;;;30.70;91.50;;;;;;4986487;28;20216;-74
2023/08/14 12:05:03;;;;;;;9.98;5.85;;;31.00;90.90;;;;;;4984189;28;20727;-74
2023/08/14 12:07:29;;;;;;;3.22;2.28;;;30.90;91.20;;;;;;4981895;28;20202;-74
2023/08/14 12:09:56;;;;;;;4.68;2.55;;;30.80;91.40;;;;;;4988704;28;20205;-74
2023/08/14 12:12:22;;;;;;;3.45;2.30;;;30.80;91.50;;;;;;4991739;28;20746;-73
2023/08/14 12:14:50;;;;;;;4.55;2.90;;;30.80;91.70;;;;;;4999448;28;20205;-71
2023/08/14 12:17:18;;;;;;;3.50;2.08;;;31.10;91.70;;;;;;4990880;28;20244;-72
2023/08/14 12:19:52;;;;;;;3.50;2.42;;;30.90;91.80;;;;;;4997606;28;20221;-73
2023/08/14 12:22:22;;;;;;;5.53;3.17;;;30.60;91.80;;;;;;4992101;28;20219;-73
2023/08/14 12:24:49;;;;;;;5.05;2.50;;;31.10;92.00;;;;;;4997708;28;20304;-73
2023/08/14 12:27:16;;;;;;;5.80;2.60;;;31.20;92.00;;;;;;4989824;28;20213;-74
2023/08/14 12:29:42;;;;;;;3.70;2.42;;;31.30;91.90;;;;;;4988965;28;20240;-73
2023/08/14 12:32:08;;;;;;;4.47;2.90;;;31.00;92.10;;;;;;4987370;28;20592;-73
2023/08/14 12:34:34;;;;;;;3.85;2.15;;;31.00;92.50;;;;;;4988815;28;20257;-73
2023/08/14 12:36:59;;;;;;;3.92;2.60;;;30.80;92.40;;;;;;4986985;28;20257;-74
2023/08/14 12:39:25;;;;;;;6.65;3.08;;;30.60;92.80;;;;;;4983912;28;20218;-74
2023/08/14 12:41:55;;;;;;;6.32;2.83;;;30.90;92.90;;;;;;4985273;28;20248;-74